createdAt,value
2019-02-08T00:00:58.276Z,98734.73
2019-02-08T00:03:26.072Z,98736.36
2019-02-08T00:05:55.586Z,98732.88
2019-02-08T00:08:23.630Z,98729.17
2019-02-08T00:10:51.569Z,98734.47
2019-02-08T00:13:19.270Z,98735.55
2019-02-08T00:15:47.978Z,98737.14
2019-02-08T00:18:16.266Z,98729.66
2019-02-08T00:20:44.263Z,98734.50
2019-02-08T00:23:13.968Z,98735.80
2019-02-08T00:25:44.008Z,98720.59
2019-02-08T00:28:12.408Z,98720.59
2019-02-08T00:30:40.100Z,98733.15
2019-02-08T00:33:08.479Z,98733.41
2019-02-08T00:35:36.715Z,98744.36
2019-02-08T00:38:04.559Z,98741.97
2019-02-08T00:40:33.468Z,98727.81
2019-02-08T00:43:01.480Z,98749.42
2019-02-08T00:45:30.012Z,98742.22
2019-02-08T00:47:58.408Z,98744.91
2019-02-08T00:50:26.265Z,98749.17
2019-02-08T00:52:54.851Z,98754.77
2019-02-08T00:55:23.905Z,98741.69
2019-02-08T00:57:52.843Z,98760.65
2019-02-08T01:00:21.816Z,98763.84
2019-02-08T01:02:50.896Z,98763.84
2019-02-08T01:05:20.737Z,98762.77
2019-02-08T01:07:50.874Z,98756.61
2019-02-08T01:10:27.816Z,98757.97
2019-02-08T01:12:58.860Z,98757.97
2019-02-08T01:15:27.858Z,98780.64
2019-02-08T01:17:57.847Z,98760.12
2019-02-08T01:20:26.853Z,98771.33
2019-02-08T01:22:55.437Z,98772.90
2019-02-08T01:25:25.642Z,98772.90
2019-02-08T01:27:56.886Z,98775.56
2019-02-08T01:30:26.844Z,98786.80
2019-02-08T01:32:55.391Z,98786.80
2019-02-08T01:35:25.826Z,98786.50
2019-02-08T01:37:54.819Z,98795.06
2019-02-08T01:40:31.866Z,98787.06
2019-02-08T01:43:01.889Z,98785.44
2019-02-08T01:47:50.856Z,98780.36
2019-02-08T01:50:20.864Z,98781.97
2019-02-08T01:54:53.851Z,98776.89
2019-02-08T01:57:21.793Z,98776.89
2019-02-08T01:59:49.795Z,98784.38
2019-02-08T02:06:08.801Z,98777.70
2019-02-08T02:08:48.965Z,98776.34
2019-02-08T02:11:35.578Z,98779.30
2019-02-08T02:14:03.356Z,98772.89
2019-02-08T02:16:31.811Z,98769.67
2019-02-08T02:19:00.612Z,98763.55
2019-02-08T02:21:29.369Z,98770.22
2019-02-08T02:23:58.826Z,98772.37
2019-02-08T02:26:27.848Z,98768.34
2019-02-08T02:28:56.842Z,98763.01
2019-02-08T02:31:25.789Z,98763.01
2019-02-08T02:33:56.773Z,98763.53
2019-02-08T02:36:25.824Z,98767.00
2019-02-08T02:38:56.840Z,98759.52
2019-02-08T02:41:26.225Z,98759.52
2019-02-08T02:43:55.773Z,98761.65
2019-02-08T02:46:24.758Z,98763.80
2019-02-08T02:48:53.758Z,98765.41
2019-02-08T02:51:23.766Z,98765.13
2019-02-08T02:53:53.784Z,98778.98
2019-02-08T02:57:53.696Z,98769.62
2019-02-08T03:00:35.373Z,98769.62
2019-02-08T03:03:28.038Z,98781.68
2019-02-08T03:05:57.840Z,98761.66
2019-02-08T03:08:29.795Z,98761.66
2019-02-08T03:10:58.834Z,98762.17
2019-02-08T03:13:29.608Z,98766.47
2019-02-08T03:15:57.866Z,98766.47
2019-02-08T03:18:27.572Z,98756.31
2019-02-08T03:20:56.234Z,98756.05
2019-02-08T03:23:28.342Z,98756.05
2019-02-08T03:25:57.768Z,98757.91
2019-02-08T03:28:26.824Z,98755.51
2019-02-08T03:30:58.801Z,98756.03
2019-02-08T03:33:28.747Z,98758.70
2019-02-08T03:35:58.844Z,98751.50
2019-02-08T03:38:30.686Z,98751.50
2019-02-08T03:40:58.655Z,98748.05
2019-02-08T03:43:28.334Z,98753.38
2019-02-08T03:45:59.166Z,98755.50
2019-02-08T03:51:11.948Z,98752.86
2019-02-08T03:53:41.572Z,98758.44
2019-02-08T03:56:10.742Z,98758.44
2019-02-08T03:58:39.635Z,98761.66
2019-02-08T04:01:09.810Z,98753.66
2019-02-08T04:03:39.676Z,98748.31
2019-02-08T04:06:07.834Z,98754.98
2019-02-08T04:08:38.808Z,98748.31
2019-02-08T04:13:49.034Z,98757.39
2019-02-08T04:16:20.046Z,98760.05
2019-02-08T04:18:53.155Z,98748.29
2019-02-08T04:21:23.377Z,98748.29
2019-02-08T04:23:52.826Z,98766.70
2019-02-08T04:28:08.751Z,98756.60
2019-02-08T04:30:38.934Z,98752.03
2019-02-08T04:33:08.682Z,98769.91
2019-02-08T04:35:40.369Z,98769.91
2019-02-08T04:38:10.832Z,98776.06
2019-02-08T04:40:41.347Z,98774.73
2019-02-08T04:43:09.806Z,98766.47
2019-02-08T04:45:38.928Z,98768.06
2019-02-08T04:48:08.872Z,98766.20
2019-02-08T04:50:38.625Z,98763.27
2019-02-08T04:53:08.334Z,98764.05
2019-02-08T04:55:37.743Z,98764.05
2019-02-08T04:58:11.902Z,98770.73
2019-02-08T05:00:43.194Z,98758.18
2019-02-08T05:03:12.854Z,98758.18
2019-02-08T05:05:42.546Z,98753.10
2019-02-08T05:08:16.880Z,98749.63
2019-02-08T05:10:45.788Z,98749.63
2019-02-08T05:13:16.765Z,98755.25
2019-02-08T05:15:45.662Z,98755.25
2019-02-08T05:18:16.582Z,98762.97
2019-02-08T05:20:47.874Z,98762.97
2019-02-08T05:23:17.008Z,98758.96
2019-02-08T05:25:46.039Z,98754.96
2019-02-08T05:28:15.113Z,98754.96
2019-02-08T05:30:43.826Z,98749.91
2019-02-08T05:33:14.751Z,98749.91
2019-02-08T05:35:43.850Z,98746.95
2019-02-08T05:38:12.847Z,98745.08
2019-02-08T05:40:41.967Z,98752.00
2019-02-08T05:43:11.833Z,98752.00
2019-02-08T05:46:08.927Z,98747.22
2019-02-08T05:48:37.858Z,98749.59
2019-02-08T05:51:06.838Z,98752.84
2019-02-08T05:53:35.718Z,98747.51
2019-02-08T05:56:06.647Z,98747.51
2019-02-08T05:58:36.834Z,98745.63
2019-02-08T06:01:06.337Z,98738.64
2019-02-08T06:03:34.694Z,98757.37
2019-02-08T06:06:04.787Z,98757.37
2019-02-08T06:08:35.403Z,98764.23
2019-02-08T06:11:06.863Z,98762.64
2019-02-08T06:13:36.320Z,98755.39
2019-02-08T06:16:06.624Z,98755.39
2019-02-08T06:18:35.179Z,98775.75
2019-02-08T06:21:05.171Z,98779.72
2019-02-08T06:23:33.604Z,98765.80
2019-02-08T06:29:34.206Z,98764.20
2019-02-08T06:32:06.868Z,98782.61
2019-02-08T06:34:37.472Z,98757.47
2019-02-08T06:37:06.568Z,98757.47
2019-02-08T06:39:37.397Z,98784.47
2019-02-08T06:44:52.117Z,98755.36
2019-02-08T06:47:20.782Z,98777.05
2019-02-08T06:49:51.513Z,98777.05
2019-02-08T06:52:20.757Z,98779.69
2019-02-08T06:54:51.921Z,98778.34
2019-02-08T06:57:42.287Z,98774.34
2019-02-08T07:00:23.112Z,98774.34
2019-02-08T07:06:03.835Z,98776.75
2019-02-08T07:08:55.765Z,98776.75
2019-02-08T07:11:47.691Z,98790.61
2019-02-08T07:14:36.722Z,98792.46
2019-02-08T07:17:23.841Z,98792.46
2019-02-08T07:20:05.700Z,98798.34
2019-02-08T07:23:46.822Z,98805.05
2019-02-08T07:26:35.036Z,98799.42
2019-02-08T07:29:15.817Z,98790.31
2019-02-08T07:32:11.792Z,98790.31
2019-02-08T07:35:03.823Z,98787.91
2019-02-08T07:37:38.778Z,98787.91
2019-02-08T07:40:49.477Z,98810.09
2019-02-08T07:43:28.274Z,98809.83
2019-02-08T07:46:20.796Z,98796.46
2019-02-08T07:49:20.822Z,98796.46
2019-02-08T07:52:10.928Z,98791.94
2019-02-08T07:55:01.940Z,98791.94
2019-02-08T07:57:50.691Z,98792.56
2019-02-08T08:00:30.713Z,98792.56
2019-02-08T08:03:31.834Z,98790.94
2019-02-08T08:06:20.778Z,98806.68
2019-02-08T08:09:09.789Z,98812.30
2019-02-08T08:11:56.510Z,98812.30
2019-02-08T08:14:44.077Z,98811.81
2019-02-08T08:17:48.817Z,98804.33
2019-02-08T08:20:43.941Z,98804.33
2019-02-08T08:23:39.375Z,98809.70
2019-02-08T08:26:27.762Z,98805.70
2019-02-08T08:29:20.759Z,98806.77
2019-02-08T08:32:12.747Z,98803.31
2019-02-08T08:35:43.385Z,98803.31
2019-02-08T08:39:07.784Z,98809.72
2019-02-08T08:42:13.859Z,98805.72
2019-02-08T08:45:28.075Z,98793.16
2019-02-08T08:48:25.394Z,98791.30
2019-02-08T08:51:34.799Z,98791.30
2019-02-08T08:59:14.353Z,98805.23
2019-02-08T09:02:04.800Z,98791.59
2019-02-08T09:05:34.846Z,98783.06
2019-02-08T09:08:46.020Z,98763.04
2019-02-08T09:12:17.951Z,98763.04
2019-02-08T09:15:39.618Z,98770.00
2019-02-08T09:19:02.810Z,98761.23
2019-02-08T09:21:57.297Z,98662.16
2019-02-08T09:25:28.818Z,98662.16
2019-02-08T09:28:24.804Z,98738.80
2019-02-08T09:31:56.804Z,98738.80
2019-02-08T09:35:26.830Z,98756.67
2019-02-08T09:38:43.921Z,98756.67
2019-02-08T09:42:09.737Z,98747.31
2019-02-08T09:46:06.046Z,98743.84
2019-02-08T09:49:37.948Z,98743.84
2019-02-08T09:57:05.520Z,98737.68
2019-02-08T10:00:08.799Z,98736.86
2019-02-08T10:03:54.772Z,98757.42
2019-02-08T10:07:00.531Z,98751.54
2019-02-08T10:10:28.980Z,98751.54
2019-02-08T10:13:57.026Z,98755.80
2019-02-08T10:17:26.306Z,98755.80
2019-02-08T10:21:15.706Z,98766.75
2019-02-08T10:25:16.854Z,98767.81
2019-02-08T10:28:44.887Z,98747.22
2019-02-08T10:32:31.874Z,98756.86
2019-02-08T10:36:08.820Z,98733.88
2019-02-08T10:43:03.768Z,98739.20
2019-02-08T10:46:36.358Z,98739.20
2019-02-08T10:50:14.236Z,98737.08
2019-02-08T10:54:07.352Z,98726.13
2019-02-08T10:57:27.672Z,98721.31
2019-02-08T11:01:08.397Z,98721.31
2019-02-08T11:04:23.318Z,98706.89
2019-02-08T11:07:51.838Z,98705.55
2019-02-08T11:11:05.383Z,98690.03
2019-02-08T11:14:17.736Z,98676.17
2019-02-08T11:17:52.784Z,98676.17
2019-02-08T11:20:22.589Z,98678.53
2019-02-08T11:22:50.869Z,98678.53
2019-02-08T11:25:19.744Z,98658.51
2019-02-08T11:30:30.897Z,98671.27
2019-02-08T11:33:00.832Z,98667.53
2019-02-08T11:35:30.758Z,98656.61
2019-02-08T11:38:01.860Z,98660.63
2019-02-08T11:40:33.638Z,98653.94
2019-02-08T11:43:04.046Z,98653.94
2019-02-08T11:45:34.167Z,98648.30
2019-02-08T11:48:06.828Z,98645.57
2019-02-08T11:50:37.679Z,98640.48
2019-02-08T11:53:07.756Z,98640.48
2019-02-08T12:09:50.891Z,98602.55
2019-02-08T12:12:19.016Z,98607.83
2019-02-08T12:14:49.638Z,98607.83
2019-02-08T12:17:17.971Z,98607.04
2019-02-08T12:19:47.906Z,98602.67
2019-02-08T12:22:17.586Z,98588.82
2019-02-08T12:24:47.935Z,98588.82
2019-02-08T12:27:17.742Z,98583.96
2019-02-08T12:29:46.305Z,98583.96
2019-02-08T12:32:16.042Z,98582.84
2019-02-08T12:34:44.771Z,98563.34
2019-02-08T12:37:14.240Z,98563.34
2019-02-08T12:39:43.602Z,98562.23
2019-02-08T12:42:13.864Z,98555.05
2019-02-08T12:44:42.748Z,98531.00
2019-02-08T12:47:12.796Z,98531.00
2019-02-08T12:49:41.057Z,98541.09
2019-02-08T12:52:10.939Z,98541.09
2019-02-08T12:54:39.712Z,98530.91
2019-02-08T12:59:42.788Z,98527.93
2019-02-08T13:02:12.158Z,98529.55
2019-02-08T13:04:41.699Z,98522.30
2019-02-08T13:07:10.416Z,98522.30
2019-02-08T13:09:39.591Z,98517.20
2019-02-08T13:12:09.348Z,98518.78
2019-02-08T13:14:39.532Z,98507.00
2019-02-08T13:17:07.686Z,98476.61
2019-02-08T13:19:36.902Z,98476.61
2019-02-08T13:22:05.378Z,98495.45
2019-02-08T13:24:35.730Z,98495.45
2019-02-08T13:27:05.343Z,98495.14
2019-02-08T13:29:35.659Z,98489.51
2019-02-08T13:32:05.401Z,98489.83
2019-02-08T13:34:33.842Z,98488.20
2019-02-08T13:37:04.115Z,98482.33
2019-02-08T13:39:32.880Z,98482.33
2019-02-08T13:42:03.668Z,98473.45
2019-02-08T13:44:32.833Z,98472.39
2019-02-08T13:47:05.000Z,98467.08
2019-02-08T13:49:32.837Z,98446.23
2019-02-08T13:52:04.073Z,98446.23
2019-02-08T13:54:33.800Z,98455.25
2019-02-08T13:57:03.777Z,98455.25
2019-02-08T13:59:32.840Z,98447.19
2019-02-08T14:02:01.750Z,98426.70
2019-02-08T14:04:31.761Z,98426.70
2019-02-08T14:07:00.728Z,98445.03
2019-02-08T14:09:32.147Z,98434.36
2019-02-08T14:12:00.777Z,98434.36
2019-02-08T14:14:31.753Z,98429.50
2019-02-08T14:17:00.920Z,98422.53
2019-02-08T14:19:32.030Z,98397.97
2019-02-08T14:22:01.679Z,98397.97
2019-02-08T14:24:30.751Z,98416.97
2019-02-08T14:27:08.214Z,98416.69
2019-02-08T14:29:32.714Z,98415.10
2019-02-08T14:32:01.754Z,98419.61
2019-02-08T14:34:31.961Z,98419.61
2019-02-08T14:37:00.961Z,98403.88
2019-02-08T14:39:32.338Z,98392.16
2019-02-08T14:42:01.389Z,98385.55
2019-02-08T14:44:31.081Z,98385.55
2019-02-08T14:49:45.778Z,98390.05
2019-02-08T14:52:16.007Z,98390.05
2019-02-08T14:54:44.867Z,98390.02
2019-02-08T14:57:16.662Z,98386.28
2019-02-08T14:59:44.698Z,98372.66
2019-02-08T15:02:14.375Z,98371.08
2019-02-08T15:04:43.057Z,98371.08
2019-02-08T15:07:11.382Z,98350.36
2019-02-08T15:09:39.770Z,98350.36
2019-02-08T15:12:09.052Z,98331.63
2019-02-08T15:14:39.319Z,98331.63
2019-02-08T15:17:07.774Z,98347.36
2019-02-08T15:19:36.595Z,98343.35
2019-02-08T15:22:05.832Z,98353.48
2019-02-08T15:24:34.478Z,98348.20
2019-02-08T15:29:50.180Z,98339.86
2019-02-08T15:32:18.849Z,98339.86
2019-02-08T15:34:48.793Z,98315.19
2019-02-08T15:37:17.778Z,98315.19
2019-02-08T15:39:46.710Z,98322.46
2019-02-08T15:42:16.196Z,98322.46
2019-02-08T15:44:45.612Z,98329.53
2019-02-08T15:47:14.926Z,98331.22
2019-02-08T15:49:44.848Z,98319.64
2019-02-08T15:52:12.609Z,98316.11
2019-02-08T15:54:43.728Z,98316.11
2019-02-08T15:57:14.411Z,98307.35
2019-02-08T15:59:42.793Z,98307.35
2019-02-08T16:02:12.632Z,98304.12
2019-02-08T16:04:41.625Z,98299.54
2019-02-08T16:07:11.600Z,98299.54
2019-02-08T16:09:42.833Z,98297.43
2019-02-08T16:12:11.670Z,98298.00
2019-02-08T16:14:40.946Z,98289.80
2019-02-08T16:17:09.047Z,98284.02
2019-02-08T16:19:36.430Z,98284.02
2019-02-08T16:22:07.362Z,98284.58
2019-02-08T16:24:35.695Z,98285.55
2019-02-08T16:27:04.530Z,98290.25
2019-02-08T16:29:33.834Z,98290.25
2019-02-08T16:32:02.659Z,98286.97
2019-02-08T16:34:32.657Z,98286.97
2019-02-08T16:37:03.600Z,98284.55
2019-02-08T16:39:34.837Z,98282.67
2019-02-08T16:42:03.961Z,98282.95
2019-02-08T16:44:35.668Z,98275.70
2019-02-08T16:47:05.764Z,98270.97
2019-02-08T16:49:38.883Z,98262.61
2019-02-08T16:52:10.316Z,98262.61
2019-02-08T16:54:42.545Z,98267.84
2019-02-08T16:57:13.683Z,98247.46
2019-02-08T16:59:43.744Z,98246.86
2019-02-08T17:02:13.685Z,98246.86
2019-02-08T17:04:42.937Z,98261.77
2019-02-08T17:07:15.681Z,98262.34
2019-02-08T17:09:44.413Z,98262.34
2019-02-08T17:12:13.827Z,98246.00
2019-02-08T17:14:43.659Z,98246.00
2019-02-08T17:17:14.563Z,98257.42
2019-02-08T17:20:51.332Z,98253.17
2019-02-08T17:23:20.870Z,98259.09
2019-02-08T17:25:50.473Z,98246.05
2019-02-08T17:28:18.671Z,98246.05
2019-02-08T17:30:49.906Z,98256.98
2019-02-08T17:34:13.625Z,98253.45
2019-02-08T17:36:42.680Z,98237.42
2019-02-08T17:39:11.930Z,98237.42
2019-02-08T17:41:40.857Z,98255.02
2019-02-08T17:44:10.798Z,98255.02
2019-02-08T17:46:40.635Z,98254.00
2019-02-08T17:49:08.571Z,98256.42
2019-02-08T17:51:37.183Z,98245.77
2019-02-08T17:54:07.008Z,98242.36
2019-02-08T17:56:36.661Z,98242.36
2019-02-08T18:03:25.736Z,98234.63
2019-02-08T18:05:55.715Z,98234.63
2019-02-08T18:08:26.069Z,98224.34
2019-02-08T18:10:55.615Z,98238.59
2019-02-08T18:13:26.605Z,98242.98
2019-02-08T18:15:55.631Z,98237.62
2019-02-08T18:21:09.956Z,98216.41
2019-02-08T18:23:37.637Z,98222.80
2019-02-08T18:26:08.740Z,98224.98
2019-02-08T18:28:39.818Z,98231.91
2019-02-08T18:31:08.261Z,98219.20
2019-02-08T18:33:38.063Z,98226.33
2019-02-08T18:36:07.623Z,98222.88
2019-02-08T18:38:36.412Z,98222.88
2019-02-08T18:41:05.644Z,98214.34
2019-02-08T18:46:14.537Z,98220.81
2019-02-08T18:48:44.908Z,98219.77
2019-02-08T18:51:13.691Z,98215.27
2019-02-08T18:53:42.958Z,98220.34
2019-02-08T18:56:11.751Z,98208.87
2019-02-08T18:58:41.149Z,98197.70
2019-02-08T19:01:10.069Z,98197.70
2019-02-08T19:03:39.850Z,98216.56
2019-02-08T19:06:08.637Z,98212.35
2019-02-08T19:08:37.749Z,98215.28
2019-02-08T19:11:07.638Z,98215.28
2019-02-08T19:13:35.998Z,98207.30
2019-02-08T19:16:05.056Z,98197.70
2019-02-08T19:18:36.810Z,98201.05
2019-02-08T19:23:24.167Z,98188.75
2019-02-08T19:25:53.651Z,98185.59
2019-02-08T19:28:26.745Z,98186.72
2019-02-08T19:30:57.822Z,98180.23
2019-02-08T19:33:29.803Z,98178.94
2019-02-08T19:36:01.629Z,98175.27
2019-02-08T19:38:31.558Z,98175.27
2019-02-08T19:41:02.654Z,98156.27
2019-02-08T19:43:37.005Z,98144.58
2019-02-08T19:46:06.170Z,98157.56
2019-02-08T19:48:35.109Z,98144.81
2019-02-08T19:51:04.804Z,98144.81
2019-02-08T19:53:35.406Z,98130.24
2019-02-08T19:57:34.783Z,98147.98
2019-02-08T20:00:03.679Z,98151.42
2019-02-08T20:02:32.021Z,98141.58
2019-02-08T20:05:01.949Z,98131.86
2019-02-08T20:07:34.543Z,98151.50
2019-02-08T20:10:08.023Z,98149.92
2019-02-08T20:12:37.639Z,98149.92
2019-02-08T20:15:10.352Z,98057.56
2019-02-08T20:17:39.755Z,98127.81
2019-02-08T20:20:09.033Z,98127.86
2019-02-08T20:22:38.079Z,98135.83
2019-02-08T20:25:13.302Z,98135.83
2019-02-08T20:27:43.627Z,98128.50
2019-02-08T20:31:08.535Z,98125.42
2019-02-08T20:33:40.675Z,98125.42
2019-02-08T20:36:11.414Z,98104.91
2019-02-08T20:38:42.392Z,98104.91
2019-02-08T20:41:10.871Z,98127.73
2019-02-08T20:43:40.360Z,98119.76
2019-02-08T20:46:09.668Z,98119.23
2019-02-08T20:48:39.276Z,98109.03
2019-02-08T20:51:10.774Z,98107.20
2019-02-08T20:54:23.647Z,98103.52
2019-02-08T20:56:58.760Z,98104.29
2019-02-08T20:59:22.973Z,98104.29
2019-02-08T21:01:51.591Z,98103.81
2019-02-08T21:04:21.612Z,98099.76
2019-02-08T21:06:50.101Z,98095.51
2019-02-08T21:09:20.578Z,98081.63
2019-02-08T21:11:50.006Z,98081.63
2019-02-08T21:14:20.731Z,98077.86
2019-02-08T21:20:10.836Z,98071.70
2019-02-08T21:22:38.648Z,98050.52
2019-02-08T21:25:08.941Z,98050.52
2019-02-08T21:27:37.060Z,98054.38
2019-02-08T21:30:06.675Z,98054.38
2019-02-08T21:35:14.612Z,98048.27
2019-02-08T21:37:43.702Z,98051.47
2019-02-08T21:40:14.655Z,98047.22
2019-02-08T21:42:44.318Z,98045.13
2019-02-08T21:45:22.352Z,98036.82
2019-02-08T21:47:50.642Z,98041.63
2019-02-08T21:50:20.663Z,98039.83
2019-02-08T21:52:50.625Z,98040.34
2019-02-08T21:58:01.868Z,98031.33
2019-02-08T22:00:32.818Z,98022.59
2019-02-08T22:03:04.673Z,98022.59
2019-02-08T22:07:41.379Z,98021.89
2019-02-08T22:10:10.887Z,98021.89
2019-02-08T22:12:41.018Z,98004.80
2019-02-08T22:15:14.622Z,98004.80
2019-02-08T22:17:46.592Z,97996.30
2019-02-08T22:20:18.049Z,98005.81
2019-02-08T22:22:48.917Z,98005.81
2019-02-08T22:25:18.703Z,97995.73
2019-02-08T22:27:50.723Z,97999.45
2019-02-08T22:30:20.873Z,97999.45
2019-02-08T22:32:50.736Z,97988.63
2019-02-08T22:35:20.767Z,97988.63
2019-02-08T22:37:51.164Z,98009.08
2019-02-08T22:40:20.775Z,98003.22
2019-02-08T22:42:49.848Z,98001.12
2019-02-08T22:45:30.813Z,97999.54
2019-02-08T22:47:59.359Z,97999.54
2019-02-08T22:50:28.310Z,97995.25
2019-02-08T22:52:57.886Z,98004.87
2019-02-08T22:55:27.679Z,98009.45
2019-02-08T22:57:57.027Z,98009.45
2019-02-08T23:01:41.795Z,98004.20
2019-02-08T23:04:09.792Z,98004.20
2019-02-08T23:06:44.538Z,97991.42
2019-02-08T23:09:21.972Z,98001.69
2019-02-08T23:11:50.555Z,98002.63
2019-02-08T23:14:20.338Z,98003.48
2019-02-08T23:16:49.083Z,98003.48
2019-02-08T23:19:19.664Z,98007.77
2019-02-08T23:22:32.877Z,97997.48
2019-02-08T23:28:19.846Z,97994.00
2019-02-08T23:30:50.801Z,97974.41
2019-02-08T23:35:16.029Z,97983.38
2019-02-08T23:37:46.282Z,97965.67
2019-02-08T23:40:15.752Z,97974.65
2019-02-08T23:42:44.837Z,97966.91
2019-02-08T23:47:34.174Z,97960.77
2019-02-08T23:50:03.723Z,97958.68
2019-02-08T23:52:32.801Z,97958.68
2019-02-08T23:55:30.689Z,97962.63
2019-02-08T23:58:03.746Z,97960.21
